sensor_id;sensor_type;location;lat;lon;timestamp;pressure;altitude;pressure_sealevel;temperature;humidity
59055;BME280;44845;51.444;7.460;2023-06-10T00:02:08;99624.59;;;18.94;61.35
59055;BME280;44845;51.444;7.460;2023-06-10T00:04:34;99625.34;;;18.97;60.82
59055;BME280;44845;51.444;7.460;2023-06-10T00:07:03;99630.66;;;18.97;61.33
59055;BME280;44845;51.444;7.460;2023-06-10T00:09:29;99628.78;;;18.99;60.61
59055;BME280;44845;51.444;7.460;2023-06-10T00:11:54;99629.00;;;18.95;60.93
59055;BME280;44845;51.444;7.460;2023-06-10T00:14:20;99623.91;;;18.90;60.98
59055;BME280;44845;51.444;7.460;2023-06-10T00:16:48;99624.03;;;18.87;61.29
59055;BME280;44845;51.444;7.460;2023-06-10T00:19:17;99624.91;;;18.87;61.47
59055;BME280;44845;51.444;7.460;2023-06-10T00:21:46;99624.59;;;18.74;61.70
59055;BME280;44845;51.444;7.460;2023-06-10T00:24:11;99620.72;;;18.82;61.85
59055;BME280;44845;51.444;7.460;2023-06-10T00:26:40;99621.81;;;18.77;61.60
59055;BME280;44845;51.444;7.460;2023-06-10T00:29:06;99626.19;;;18.78;61.87
59055;BME280;44845;51.444;7.460;2023-06-10T00:31:34;99635.81;;;18.81;61.45
59055;BME280;44845;51.444;7.460;2023-06-10T00:33:59;99623.94;;;18.69;61.89
59055;BME280;44845;51.444;7.460;2023-06-10T00:36:25;99625.69;;;18.70;62.03
59055;BME280;44845;51.444;7.460;2023-06-10T00:38:50;99633.13;;;18.62;62.28
59055;BME280;44845;51.444;7.460;2023-06-10T00:41:15;99626.91;;;18.63;62.34
59055;BME280;44845;51.444;7.460;2023-06-10T00:43:41;99628.94;;;18.56;63.21
59055;BME280;44845;51.444;7.460;2023-06-10T00:46:06;99636.19;;;18.52;62.86
59055;BME280;44845;51.444;7.460;2023-06-10T00:48:32;99641.84;;;18.44;63.88
59055;BME280;44845;51.444;7.460;2023-06-10T00:50:59;99633.56;;;18.31;64.09
59055;BME280;44845;51.444;7.460;2023-06-10T00:53:24;99640.47;;;18.36;63.96
59055;BME280;44845;51.444;7.460;2023-06-10T00:55:50;99641.38;;;18.34;64.30
59055;BME280;44845;51.444;7.460;2023-06-10T00:58:16;99641.38;;;18.34;64.05
59055;BME280;44845;51.444;7.460;2023-06-10T01:00:41;99642.34;;;18.33;63.72
59055;BME280;44845;51.444;7.460;2023-06-10T01:03:07;99629.41;;;18.26;64.00
59055;BME280;44845;51.444;7.460;2023-06-10T01:05:34;99634.94;;;18.19;64.78
59055;BME280;44845;51.444;7.460;2023-06-10T01:10:55;99640.06;;;18.24;64.82
59055;BME280;44845;51.444;7.460;2023-06-10T01:13:23;99640.88;;;18.26;64.37
59055;BME280;44845;51.444;7.460;2023-06-10T01:15:50;99641.00;;;18.23;64.29
59055;BME280;44845;51.444;7.460;2023-06-10T01:18:15;99631.97;;;18.27;64.58
59055;BME280;44845;51.444;7.460;2023-06-10T01:20:43;99633.09;;;18.21;64.31
59055;BME280;44845;51.444;7.460;2023-06-10T01:23:10;99629.88;;;18.13;64.99
59055;BME280;44845;51.444;7.460;2023-06-10T01:25:38;99633.47;;;18.12;65.25
59055;BME280;44845;51.444;7.460;2023-06-10T01:30:59;99638.84;;;18.10;65.58
59055;BME280;44845;51.444;7.460;2023-06-10T01:33:28;99647.19;;;18.01;65.58
59055;BME280;44845;51.444;7.460;2023-06-10T01:35:56;99647.59;;;17.92;65.93
59055;BME280;44845;51.444;7.460;2023-06-10T01:38:25;99647.13;;;17.82;66.41
59055;BME280;44845;51.444;7.460;2023-06-10T01:40:52;99654.50;;;17.73;66.72
59055;BME280;44845;51.444;7.460;2023-06-10T01:43:20;99656.25;;;17.74;67.05
59055;BME280;44845;51.444;7.460;2023-06-10T01:45:45;99646.47;;;17.75;66.67
59055;BME280;44845;51.444;7.460;2023-06-10T01:48:10;99643.03;;;17.73;66.48
59055;BME280;44845;51.444;7.460;2023-06-10T01:50:36;99647.63;;;17.69;66.10
59055;BME280;44845;51.444;7.460;2023-06-10T01:53:03;99647.06;;;17.61;66.91
59055;BME280;44845;51.444;7.460;2023-06-10T01:55:29;99647.34;;;17.53;67.07
59055;BME280;44845;51.444;7.460;2023-06-10T01:57:54;99643.19;;;17.47;67.71
59055;BME280;44845;51.444;7.460;2023-06-10T02:00:19;99641.69;;;17.62;66.81
59055;BME280;44845;51.444;7.460;2023-06-10T02:02:45;99650.00;;;17.53;67.28
59055;BME280;44845;51.444;7.460;2023-06-10T02:05:11;99649.22;;;17.51;67.02
59055;BME280;44845;51.444;7.460;2023-06-10T02:07:36;99646.69;;;17.48;67.43
59055;BME280;44845;51.444;7.460;2023-06-10T02:10:01;99648.09;;;17.34;67.60
59055;BME280;44845;51.444;7.460;2023-06-10T02:12:27;99651.56;;;17.36;67.71
59055;BME280;44845;51.444;7.460;2023-06-10T02:14:52;99646.63;;;17.27;67.86
59055;BME280;44845;51.444;7.460;2023-06-10T02:17:17;99642.47;;;17.19;68.84
59055;BME280;44845;51.444;7.460;2023-06-10T02:19:43;99655.13;;;17.11;68.99
59055;BME280;44845;51.444;7.460;2023-06-10T02:22:09;99655.63;;;17.22;68.27
59055;BME280;44845;51.444;7.460;2023-06-10T02:24:36;99649.09;;;17.31;68.17
59055;BME280;44845;51.444;7.460;2023-06-10T02:27:02;99652.78;;;17.27;68.15
59055;BME280;44845;51.444;7.460;2023-06-10T02:29:28;99655.72;;;17.19;68.98
59055;BME280;44845;51.444;7.460;2023-06-10T02:31:54;99656.78;;;17.14;69.14
59055;BME280;44845;51.444;7.460;2023-06-10T02:34:19;99662.00;;;17.17;68.57
59055;BME280;44845;51.444;7.460;2023-06-10T02:36:44;99662.63;;;17.24;68.36
59055;BME280;44845;51.444;7.460;2023-06-10T02:39:10;99658.50;;;17.16;68.41
59055;BME280;44845;51.444;7.460;2023-06-10T02:41:35;99658.09;;;17.03;69.28
59055;BME280;44845;51.444;7.460;2023-06-10T02:44:01;99657.16;;;17.04;69.21
59055;BME280;44845;51.444;7.460;2023-06-10T02:46:26;99653.13;;;16.94;69.68
59055;BME280;44845;51.444;7.460;2023-06-10T02:48:53;99655.72;;;16.95;69.66
59055;BME280;44845;51.444;7.460;2023-06-10T02:51:19;99656.63;;;16.94;69.80
59055;BME280;44845;51.444;7.460;2023-06-10T02:53:44;99654.25;;;16.86;70.03
59055;BME280;44845;51.444;7.460;2023-06-10T02:56:10;99655.47;;;16.77;70.37
59055;BME280;44845;51.444;7.460;2023-06-10T02:58:36;99661.38;;;16.86;70.12
59055;BME280;44845;51.444;7.460;2023-06-10T03:01:02;99664.13;;;16.83;70.08
59055;BME280;44845;51.444;7.460;2023-06-10T03:03:27;99662.09;;;16.65;70.56
59055;BME280;44845;51.444;7.460;2023-06-10T03:05:53;99655.72;;;16.71;70.20
59055;BME280;44845;51.444;7.460;2023-06-10T03:08:18;99669.09;;;16.66;70.33
59055;BME280;44845;51.444;7.460;2023-06-10T03:10:43;99659.28;;;16.70;70.46
59055;BME280;44845;51.444;7.460;2023-06-10T03:13:09;99658.19;;;16.76;69.98
59055;BME280;44845;51.444;7.460;2023-06-10T03:15:35;99652.19;;;16.71;70.45
59055;BME280;44845;51.444;7.460;2023-06-10T03:18:01;99659.63;;;16.61;71.06
59055;BME280;44845;51.444;7.460;2023-06-10T03:20:27;99654.66;;;16.51;71.36
59055;BME280;44845;51.444;7.460;2023-06-10T03:22:53;99654.88;;;16.45;71.07
59055;BME280;44845;51.444;7.460;2023-06-10T03:25:19;99662.00;;;16.43;71.42
59055;BME280;44845;51.444;7.460;2023-06-10T03:27:46;99658.44;;;16.44;71.25
59055;BME280;44845;51.444;7.460;2023-06-10T03:30:13;99659.81;;;16.54;71.08
59055;BME280;44845;51.444;7.460;2023-06-10T03:32:38;99657.97;;;16.57;70.96
59055;BME280;44845;51.444;7.460;2023-06-10T03:35:04;99661.66;;;16.52;71.31
59055;BME280;44845;51.444;7.460;2023-06-10T03:37:29;99658.09;;;16.53;71.15
59055;BME280;44845;51.444;7.460;2023-06-10T03:39:55;99668.91;;;16.47;71.20
59055;BME280;44845;51.444;7.460;2023-06-10T03:42:20;99666.97;;;16.52;71.07
59055;BME280;44845;51.444;7.460;2023-06-10T03:44:45;99669.84;;;16.46;71.31
59055;BME280;44845;51.444;7.460;2023-06-10T03:47:11;99674.53;;;16.38;71.77
59055;BME280;44845;51.444;7.460;2023-06-10T03:49:38;99674.63;;;16.35;71.99
59055;BME280;44845;51.444;7.460;2023-06-10T03:52:03;99676.47;;;16.32;72.29
59055;BME280;44845;51.444;7.460;2023-06-10T03:54:31;99678.09;;;16.37;72.05
59055;BME280;44845;51.444;7.460;2023-06-10T03:56:56;99679.25;;;16.29;72.06
59055;BME280;44845;51.444;7.460;2023-06-10T03:59:22;99671.69;;;16.44;71.90
59055;BME280;44845;51.444;7.460;2023-06-10T04:01:47;99687.38;;;16.49;71.13
59055;BME280;44845;51.444;7.460;2023-06-10T04:04:15;99681.88;;;16.55;71.36
59055;BME280;44845;51.444;7.460;2023-06-10T04:06:42;99682.41;;;16.65;71.02
59055;BME280;44845;51.444;7.460;2023-06-10T04:09:08;99690.41;;;16.63;71.38
59055;BME280;44845;51.444;7.460;2023-06-10T04:11:35;99683.28;;;16.65;71.36
59055;BME280;44845;51.444;7.460;2023-06-10T04:14:01;99680.03;;;16.57;71.60
59055;BME280;44845;51.444;7.460;2023-06-10T04:16:27;99683.78;;;16.51;72.37
59055;BME280;44845;51.444;7.460;2023-06-10T04:18:52;99684.56;;;16.53;72.22
59055;BME280;44845;51.444;7.460;2023-06-10T04:21:17;99686.09;;;16.61;72.23
59055;BME280;44845;51.444;7.460;2023-06-10T04:23:43;99697.66;;;16.58;71.93
59055;BME280;44845;51.444;7.460;2023-06-10T04:26:08;99689.75;;;16.57;72.24
59055;BME280;44845;51.444;7.460;2023-06-10T04:28:33;99698.72;;;16.52;72.54
59055;BME280;44845;51.444;7.460;2023-06-10T04:30:59;99692.63;;;16.50;72.61
59055;BME280;44845;51.444;7.460;2023-06-10T04:33:24;99695.50;;;16.44;72.99
59055;BME280;44845;51.444;7.460;2023-06-10T04:35:50;99702.50;;;16.45;73.55
59055;BME280;44845;51.444;7.460;2023-06-10T04:38:15;99708.44;;;16.52;73.20
59055;BME280;44845;51.444;7.460;2023-06-10T04:40:41;99700.72;;;16.71;72.58
59055;BME280;44845;51.444;7.460;2023-06-10T04:43:06;99700.22;;;16.60;73.34
59055;BME280;44845;51.444;7.460;2023-06-10T04:45:32;99702.53;;;16.69;73.13
59055;BME280;44845;51.444;7.460;2023-06-10T04:47:57;99701.41;;;16.76;72.71
59055;BME280;44845;51.444;7.460;2023-06-10T04:50:23;99696.34;;;16.70;73.58
59055;BME280;44845;51.444;7.460;2023-06-10T04:52:48;99701.41;;;16.76;73.00
59055;BME280;44845;51.444;7.460;2023-06-10T04:55:15;99698.88;;;16.73;73.44
59055;BME280;44845;51.444;7.460;2023-06-10T04:57:40;99704.13;;;16.75;73.75
59055;BME280;44845;51.444;7.460;2023-06-10T05:00:06;99695.78;;;16.86;73.45
59055;BME280;44845;51.444;7.460;2023-06-10T05:02:32;99694.59;;;16.95;73.25
59055;BME280;44845;51.444;7.460;2023-06-10T05:04:57;99695.44;;;16.95;73.61
59055;BME280;44845;51.444;7.460;2023-06-10T05:07:23;99693.66;;;16.96;73.70
59055;BME280;44845;51.444;7.460;2023-06-10T05:09:48;99690.34;;;17.13;73.26
59055;BME280;44845;51.444;7.460;2023-06-10T05:12:14;99685.06;;;17.13;73.30
59055;BME280;44845;51.444;7.460;2023-06-10T05:14:39;99692.56;;;17.26;73.19
59055;BME280;44845;51.444;7.460;2023-06-10T05:17:05;99690.19;;;17.19;73.11
59055;BME280;44845;51.444;7.460;2023-06-10T05:19:31;99691.97;;;17.19;73.25
59055;BME280;44845;51.444;7.460;2023-06-10T05:21:56;99695.13;;;17.29;72.85
59055;BME280;44845;51.444;7.460;2023-06-10T05:24:22;99693.84;;;17.39;67.88
59055;BME280;44845;51.444;7.460;2023-06-10T05:26:48;99689.09;;;17.48;69.17
59055;BME280;44845;51.444;7.460;2023-06-10T05:29:14;99690.81;;;17.49;70.28
59055;BME280;44845;51.444;7.460;2023-06-10T05:31:41;99685.13;;;17.60;65.43
59055;BME280;44845;51.444;7.460;2023-06-10T05:34:06;99685.53;;;17.71;62.35
59055;BME280;44845;51.444;7.460;2023-06-10T05:36:31;99688.69;;;17.81;65.08
59055;BME280;44845;51.444;7.460;2023-06-10T05:38:57;99687.63;;;17.85;63.52
59055;BME280;44845;51.444;7.460;2023-06-10T05:41:23;99687.78;;;18.03;61.05
59055;BME280;44845;51.444;7.460;2023-06-10T05:43:48;99687.78;;;18.03;64.59
59055;BME280;44845;51.444;7.460;2023-06-10T05:46:13;99696.41;;;18.08;64.71
59055;BME280;44845;51.444;7.460;2023-06-10T05:48:39;99695.44;;;18.11;66.29
59055;BME280;44845;51.444;7.460;2023-06-10T05:51:04;99694.19;;;18.20;66.22
59055;BME280;44845;51.444;7.460;2023-06-10T05:53:30;99701.91;;;18.26;65.66
59055;BME280;44845;51.444;7.460;2023-06-10T05:55:55;99699.00;;;18.32;59.56
59055;BME280;44845;51.444;7.460;2023-06-10T05:58:23;99700.84;;;18.30;58.92
59055;BME280;44845;51.444;7.460;2023-06-10T06:00:48;99697.59;;;18.44;58.97
59055;BME280;44845;51.444;7.460;2023-06-10T06:03:14;99701.00;;;18.48;62.11
59055;BME280;44845;51.444;7.460;2023-06-10T06:05:39;99698.06;;;18.54;58.79
59055;BME280;44845;51.444;7.460;2023-06-10T06:08:05;99698.72;;;18.60;58.70
59055;BME280;44845;51.444;7.460;2023-06-10T06:10:30;99700.97;;;18.69;57.64
59055;BME280;44845;51.444;7.460;2023-06-10T06:12:56;99701.88;;;18.68;58.53
59055;BME280;44845;51.444;7.460;2023-06-10T06:15:21;99706.19;;;18.71;59.01
59055;BME280;44845;51.444;7.460;2023-06-10T06:17:46;99702.16;;;18.83;56.62
59055;BME280;44845;51.444;7.460;2023-06-10T06:20:12;99705.72;;;18.82;56.27
59055;BME280;44845;51.444;7.460;2023-06-10T06:22:37;99700.13;;;18.88;56.76
59055;BME280;44845;51.444;7.460;2023-06-10T06:25:02;99692.97;;;18.90;58.37
59055;BME280;44845;51.444;7.460;2023-06-10T06:27:28;99699.88;;;18.94;57.92
59055;BME280;44845;51.444;7.460;2023-06-10T06:29:53;99692.22;;;19.07;59.77
59055;BME280;44845;51.444;7.460;2023-06-10T06:32:19;99693.03;;;19.29;57.71
59055;BME280;44845;51.444;7.460;2023-06-10T06:34:44;99695.44;;;19.53;55.26
59055;BME280;44845;51.444;7.460;2023-06-10T06:37:10;99687.81;;;19.64;55.60
59055;BME280;44845;51.444;7.460;2023-06-10T06:39:35;99697.09;;;19.92;54.47
59055;BME280;44845;51.444;7.460;2023-06-10T06:42:00;99707.78;;;20.10;54.50
59055;BME280;44845;51.444;7.460;2023-06-10T06:44:26;99700.75;;;20.27;55.46
59055;BME280;44845;51.444;7.460;2023-06-10T06:46:51;99707.34;;;20.38;55.34
59055;BME280;44845;51.444;7.460;2023-06-10T06:49:16;99707.47;;;20.52;55.51
59055;BME280;44845;51.444;7.460;2023-06-10T06:51:42;99698.28;;;20.58;55.76
59055;BME280;44845;51.444;7.460;2023-06-10T06:54:07;99700.66;;;20.46;55.74
59055;BME280;44845;51.444;7.460;2023-06-10T06:56:32;99702.94;;;20.54;55.95
59055;BME280;44845;51.444;7.460;2023-06-10T06:58:58;99703.31;;;20.64;56.44
59055;BME280;44845;51.444;7.460;2023-06-10T07:01:23;99701.03;;;20.74;56.56
59055;BME280;44845;51.444;7.460;2023-06-10T07:03:48;99704.44;;;20.94;54.94
59055;BME280;44845;51.444;7.460;2023-06-10T07:06:14;99716.94;;;20.92;55.49
59055;BME280;44845;51.444;7.460;2023-06-10T07:08:39;99712.13;;;20.82;55.13
59055;BME280;44845;51.444;7.460;2023-06-10T07:11:04;99710.94;;;20.88;54.74
59055;BME280;44845;51.444;7.460;2023-06-10T07:13:30;99715.09;;;20.94;55.03
59055;BME280;44845;51.444;7.460;2023-06-10T07:15:55;99711.31;;;20.98;54.46
59055;BME280;44845;51.444;7.460;2023-06-10T07:18:20;99709.44;;;21.00;54.28
59055;BME280;44845;51.444;7.460;2023-06-10T07:20:46;99719.84;;;21.05;54.56
59055;BME280;44845;51.444;7.460;2023-06-10T07:23:11;99720.84;;;21.20;54.22
59055;BME280;44845;51.444;7.460;2023-06-10T07:25:38;99711.03;;;21.21;54.50
59055;BME280;44845;51.444;7.460;2023-06-10T07:28:05;99713.09;;;21.32;54.14
59055;BME280;44845;51.444;7.460;2023-06-10T07:30:31;99709.13;;;21.39;55.38
59055;BME280;44845;51.444;7.460;2023-06-10T07:32:56;99710.78;;;21.58;53.48
59055;BME280;44845;51.444;7.460;2023-06-10T07:35:21;99716.19;;;21.73;53.02
59055;BME280;44845;51.444;7.460;2023-06-10T07:37:47;99706.63;;;21.68;52.98
59055;BME280;44845;51.444;7.460;2023-06-10T07:40:12;99710.66;;;21.76;53.03
59055;BME280;44845;51.444;7.460;2023-06-10T07:42:37;99708.41;;;22.00;52.28
59055;BME280;44845;51.444;7.460;2023-06-10T07:45:03;99707.22;;;22.06;51.42
59055;BME280;44845;51.444;7.460;2023-06-10T07:47:30;99712.16;;;22.12;51.37
59055;BME280;44845;51.444;7.460;2023-06-10T07:49:55;99710.81;;;22.05;50.72
59055;BME280;44845;51.444;7.460;2023-06-10T07:52:21;99715.81;;;22.11;51.29
59055;BME280;44845;51.444;7.460;2023-06-10T07:54:46;99714.13;;;22.25;51.49
59055;BME280;44845;51.444;7.460;2023-06-10T07:57:11;99705.56;;;22.34;51.43
59055;BME280;44845;51.444;7.460;2023-06-10T07:59:37;99716.44;;;22.31;49.96
59055;BME280;44845;51.444;7.460;2023-06-10T08:02:03;99714.72;;;22.30;49.88
59055;BME280;44845;51.444;7.460;2023-06-10T08:04:28;99710.66;;;22.39;49.92
59055;BME280;44845;51.444;7.460;2023-06-10T08:06:56;99710.09;;;22.48;49.57
59055;BME280;44845;51.444;7.460;2023-06-10T08:09:21;99710.69;;;22.54;48.88
59055;BME280;44845;51.444;7.460;2023-06-10T08:11:48;99716.50;;;22.60;49.18
59055;BME280;44845;51.444;7.460;2023-06-10T08:14:13;99714.47;;;22.64;48.64
59055;BME280;44845;51.444;7.460;2023-06-10T08:16:39;99723.13;;;22.69;48.62
59055;BME280;44845;51.444;7.460;2023-06-10T08:19:04;99716.97;;;22.67;48.98
59055;BME280;44845;51.444;7.460;2023-06-10T08:21:29;99717.84;;;22.68;50.06
59055;BME280;44845;51.444;7.460;2023-06-10T08:23:55;99712.13;;;22.74;49.21
59055;BME280;44845;51.444;7.460;2023-06-10T08:26:20;99712.53;;;22.82;48.71
59055;BME280;44845;51.444;7.460;2023-06-10T08:28:46;99719.69;;;22.82;49.21
59055;BME280;44845;51.444;7.460;2023-06-10T08:31:11;99723.59;;;22.91;48.68
59055;BME280;44845;51.444;7.460;2023-06-10T08:33:36;99720.16;;;22.89;47.67
59055;BME280;44845;51.444;7.460;2023-06-10T08:36:02;99725.31;;;22.92;47.96
59055;BME280;44845;51.444;7.460;2023-06-10T08:38:27;99721.22;;;22.86;48.02
59055;BME280;44845;51.444;7.460;2023-06-10T08:40:56;99718.94;;;22.94;48.49
59055;BME280;44845;51.444;7.460;2023-06-10T08:43:46;99715.78;;;23.02;47.42
59055;BME280;44845;51.444;7.460;2023-06-10T08:46:14;99730.28;;;22.98;49.57
59055;BME280;44845;51.444;7.460;2023-06-10T08:48:42;99717.47;;;23.18;48.46
59055;BME280;44845;51.444;7.460;2023-06-10T08:51:10;99721.47;;;23.25;48.73
59055;BME280;44845;51.444;7.460;2023-06-10T08:53:38;99724.13;;;23.40;46.97
59055;BME280;44845;51.444;7.460;2023-06-10T08:56:09;99722.25;;;23.42;48.48
59055;BME280;44845;51.444;7.460;2023-06-10T08:58:35;99723.75;;;23.46;47.90
59055;BME280;44845;51.444;7.460;2023-06-10T09:01:07;99724.81;;;23.44;49.55
59055;BME280;44845;51.444;7.460;2023-06-10T09:03:33;99715.16;;;23.56;48.65
59055;BME280;44845;51.444;7.460;2023-06-10T09:06:00;99717.22;;;23.65;48.74
59055;BME280;44845;51.444;7.460;2023-06-10T09:08:27;99709.41;;;23.62;49.72
59055;BME280;44845;51.444;7.460;2023-06-10T09:10:52;99708.59;;;23.74;48.21
59055;BME280;44845;51.444;7.460;2023-06-10T09:13:18;99713.94;;;23.74;48.30
59055;BME280;44845;51.444;7.460;2023-06-10T09:15:43;99708.75;;;23.86;48.77
59055;BME280;44845;51.444;7.460;2023-06-10T09:18:11;99715.16;;;23.83;48.09
59055;BME280;44845;51.444;7.460;2023-06-10T09:20:38;99717.41;;;23.77;47.20
59055;BME280;44845;51.444;7.460;2023-06-10T09:23:04;99709.63;;;23.72;47.41
59055;BME280;44845;51.444;7.460;2023-06-10T09:25:37;99706.88;;;23.73;47.79
59055;BME280;44845;51.444;7.460;2023-06-10T09:28:03;99706.13;;;23.71;47.01
59055;BME280;44845;51.444;7.460;2023-06-10T09:30:30;99711.69;;;23.68;47.93
59055;BME280;44845;51.444;7.460;2023-06-10T09:32:58;99712.16;;;23.60;48.89
59055;BME280;44845;51.444;7.460;2023-06-10T09:35:25;99703.28;;;23.60;48.86
59055;BME280;44845;51.444;7.460;2023-06-10T09:37:55;99714.53;;;23.65;48.29
59055;BME280;44845;51.444;7.460;2023-06-10T09:40:21;99712.63;;;23.67;49.04
59055;BME280;44845;51.444;7.460;2023-06-10T09:42:53;99703.59;;;23.83;47.38
59055;BME280;44845;51.444;7.460;2023-06-10T09:45:20;99711.69;;;23.68;47.81
59055;BME280;44845;51.444;7.460;2023-06-10T09:47:46;99718.53;;;23.72;48.43
59055;BME280;44845;51.444;7.460;2023-06-10T09:50:12;99710.44;;;23.74;48.78
59055;BME280;44845;51.444;7.460;2023-06-10T09:52:37;99709.44;;;23.75;49.01
59055;BME280;44845;51.444;7.460;2023-06-10T09:55:03;99707.44;;;23.79;49.51
59055;BME280;44845;51.444;7.460;2023-06-10T09:57:32;99706.31;;;23.96;47.47
59055;BME280;44845;51.444;7.460;2023-06-10T10:00:05;99706.63;;;23.91;48.30
59055;BME280;44845;51.444;7.460;2023-06-10T10:02:30;99703.41;;;23.86;48.72
59055;BME280;44845;51.444;7.460;2023-06-10T10:05:03;99703.59;;;23.83;48.12
59055;BME280;44845;51.444;7.460;2023-06-10T10:07:29;99711.06;;;23.78;48.88
59055;BME280;44845;51.444;7.460;2023-06-10T10:09:54;99705.53;;;23.81;47.16
59055;BME280;44845;51.444;7.460;2023-06-10T10:12:20;99709.50;;;23.88;46.51
59055;BME280;44845;51.444;7.460;2023-06-10T10:14:46;99696.72;;;23.79;46.39
59055;BME280;44845;51.444;7.460;2023-06-10T10:17:15;99706.06;;;23.86;47.59
59055;BME280;44845;51.444;7.460;2023-06-10T10:19:48;99706.41;;;23.94;46.16
59055;BME280;44845;51.444;7.460;2023-06-10T10:22:19;99700.66;;;24.01;47.20
59055;BME280;44845;51.444;7.460;2023-06-10T10:24:52;99692.06;;;23.95;47.83
59055;BME280;44845;51.444;7.460;2023-06-10T10:27:22;99700.41;;;24.04;47.22
59055;BME280;44845;51.444;7.460;2023-06-10T10:29:52;99691.88;;;23.99;47.76
59055;BME280;44845;51.444;7.460;2023-06-10T10:32:22;99689.72;;;24.04;47.61
59055;BME280;44845;51.444;7.460;2023-06-10T10:35:07;99703.25;;;24.15;47.50
59055;BME280;44845;51.444;7.460;2023-06-10T10:37:33;99694.47;;;24.13;47.14
59055;BME280;44845;51.444;7.460;2023-06-10T10:40:00;99689.94;;;24.14;47.38
59055;BME280;44845;51.444;7.460;2023-06-10T10:42:26;99696.22;;;24.27;46.07
59055;BME280;44845;51.444;7.460;2023-06-10T10:44:52;99685.69;;;24.24;46.63
59055;BME280;44845;51.444;7.460;2023-06-10T10:47:21;99683.47;;;24.31;45.81
59055;BME280;44845;51.444;7.460;2023-06-10T10:49:48;99689.38;;;24.36;45.53
59055;BME280;44845;51.444;7.460;2023-06-10T10:52:15;99698.16;;;24.38;46.76
59055;BME280;44845;51.444;7.460;2023-06-10T10:54:46;99684.25;;;24.33;46.59
59055;BME280;44845;51.444;7.460;2023-06-10T10:57:17;99691.31;;;24.34;45.94
59055;BME280;44845;51.444;7.460;2023-06-10T11:02:40;99685.53;;;24.54;45.66
59055;BME280;44845;51.444;7.460;2023-06-10T11:05:10;99689.94;;;24.68;45.14
59055;BME280;44845;51.444;7.460;2023-06-10T11:07:36;99682.09;;;24.65;44.89
59055;BME280;44845;51.444;7.460;2023-06-10T11:10:12;99684.59;;;24.68;45.27
59055;BME280;44845;51.444;7.460;2023-06-10T11:12:51;99681.78;;;24.69;45.64
59055;BME280;44845;51.444;7.460;2023-06-10T11:15:19;99680.91;;;24.69;45.32
59055;BME280;44845;51.444;7.460;2023-06-10T11:20:56;99668.16;;;24.72;43.69
59055;BME280;44845;51.444;7.460;2023-06-10T11:28:41;99661.50;;;24.78;45.01
59055;BME280;44845;51.444;7.460;2023-06-10T11:31:06;99662.66;;;25.00;45.10
59055;BME280;44845;51.444;7.460;2023-06-10T11:33:32;99659.66;;;25.05;44.34
59055;BME280;44845;51.444;7.460;2023-06-10T11:35:58;99659.78;;;25.03;43.30
59055;BME280;44845;51.444;7.460;2023-06-10T11:38:24;99656.88;;;24.93;43.52
59055;BME280;44845;51.444;7.460;2023-06-10T11:40:49;99655.50;;;25.01;43.47
59055;BME280;44845;51.444;7.460;2023-06-10T11:43:17;99661.50;;;25.04;43.05
59055;BME280;44845;51.444;7.460;2023-06-10T11:45:43;99652.16;;;24.97;42.42
59055;BME280;44845;51.444;7.460;2023-06-10T11:48:09;99657.22;;;25.02;43.27
59055;BME280;44845;51.444;7.460;2023-06-10T11:50:34;99662.97;;;25.08;44.41
59055;BME280;44845;51.444;7.460;2023-06-10T11:53:00;99650.09;;;25.14;43.28
59055;BME280;44845;51.444;7.460;2023-06-10T11:58:15;99659.50;;;25.19;43.55
59055;BME280;44845;51.444;7.460;2023-06-10T12:00:55;99651.97;;;25.25;43.61
59055;BME280;44845;51.444;7.460;2023-06-10T12:03:23;99649.81;;;25.30;43.45
59055;BME280;44845;51.444;7.460;2023-06-10T12:06:03;99648.75;;;25.33;42.52
59055;BME280;44845;51.444;7.460;2023-06-10T12:08:29;99653.16;;;25.34;42.48
59055;BME280;44845;51.444;7.460;2023-06-10T12:10:56;99639.72;;;25.34;42.29
59055;BME280;44845;51.444;7.460;2023-06-10T12:13:22;99639.38;;;25.38;41.42
59055;BME280;44845;51.444;7.460;2023-06-10T12:15:49;99637.56;;;25.39;40.57
59055;BME280;44845;51.444;7.460;2023-06-10T12:18:19;99632.94;;;25.41;40.52
59055;BME280;44845;51.444;7.460;2023-06-10T12:20:44;99627.84;;;25.49;42.51
59055;BME280;44845;51.444;7.460;2023-06-10T12:23:10;99631.50;;;25.48;42.30
59055;BME280;44845;51.444;7.460;2023-06-10T12:25:36;99623.34;;;25.50;41.69
59055;BME280;44845;51.444;7.460;2023-06-10T12:28:02;99615.97;;;25.65;41.23
59055;BME280;44845;51.444;7.460;2023-06-10T12:30:28;99626.47;;;25.68;40.94
59055;BME280;44845;51.444;7.460;2023-06-10T12:32:53;99624.06;;;25.77;41.78
59055;BME280;44845;51.444;7.460;2023-06-10T12:35:22;99632.44;;;25.72;40.95
59055;BME280;44845;51.444;7.460;2023-06-10T12:38:01;99617.00;;;25.75;39.60
59055;BME280;44845;51.444;7.460;2023-06-10T12:40:28;99619.59;;;25.64;40.64
59055;BME280;44845;51.444;7.460;2023-06-10T12:42:54;99613.78;;;25.70;40.37
59055;BME280;44845;51.444;7.460;2023-06-10T12:45:33;99616.41;;;25.83;39.49
59055;BME280;44845;51.444;7.460;2023-06-10T12:48:17;99616.09;;;25.88;39.81
59055;BME280;44845;51.444;7.460;2023-06-10T12:50:43;99609.47;;;25.81;40.12
59055;BME280;44845;51.444;7.460;2023-06-10T12:53:10;99612.16;;;25.81;40.58
59055;BME280;44845;51.444;7.460;2023-06-10T12:55:39;99620.09;;;25.94;40.77
59055;BME280;44845;51.444;7.460;2023-06-10T12:58:04;99615.22;;;25.88;39.59
59055;BME280;44845;51.444;7.460;2023-06-10T13:00:30;99613.66;;;26.08;39.34
59055;BME280;44845;51.444;7.460;2023-06-10T13:02:56;99610.00;;;25.97;39.48
59055;BME280;44845;51.444;7.460;2023-06-10T13:05:22;99609.75;;;26.01;39.33
59055;BME280;44845;51.444;7.460;2023-06-10T13:07:47;99616.81;;;25.90;39.06
59055;BME280;44845;51.444;7.460;2023-06-10T13:10:14;99615.97;;;26.01;40.24
59055;BME280;44845;51.444;7.460;2023-06-10T13:12:40;99614.88;;;26.04;40.39
59055;BME280;44845;51.444;7.460;2023-06-10T13:15:06;99613.91;;;26.05;40.22
59055;BME280;44845;51.444;7.460;2023-06-10T13:17:31;99607.19;;;26.11;39.87